createdAt,value
2023-05-12T00:01:55.741Z,3.63
2023-05-12T00:04:22.536Z,3.70
2023-05-12T00:06:49.944Z,3.58
2023-05-12T00:09:16.754Z,3.80
2023-05-12T00:11:46.859Z,3.53
2023-05-12T00:14:13.569Z,3.53
2023-05-12T00:16:40.236Z,3.75
2023-05-12T00:19:06.908Z,4.30
2023-05-12T00:21:33.637Z,3.75
2023-05-12T00:24:00.218Z,3.50
2023-05-12T00:26:26.886Z,3.90
2023-05-12T00:28:53.465Z,3.50
2023-05-12T00:31:20.210Z,3.58
2023-05-12T00:33:47.510Z,4.07
2023-05-12T00:36:14.714Z,3.80
2023-05-12T00:38:41.386Z,3.55
2023-05-12T00:41:08.003Z,3.47
2023-05-12T00:43:34.849Z,3.55
2023-05-12T00:46:04.376Z,3.90
2023-05-12T00:48:32.162Z,3.85
2023-05-12T00:50:59.532Z,3.58
2023-05-12T00:53:30.688Z,4.00
2023-05-12T00:56:05.221Z,3.70
2023-05-12T00:58:32.163Z,3.85
2023-05-12T01:00:58.685Z,3.70
2023-05-12T01:03:26.370Z,3.72
2023-05-12T01:06:01.476Z,3.78
2023-05-12T01:08:29.404Z,3.58
2023-05-12T01:10:56.010Z,3.58
2023-05-12T01:13:22.654Z,3.88
2023-05-12T01:15:51.013Z,3.72
2023-05-12T01:18:20.077Z,3.65
2023-05-12T01:20:48.142Z,3.80
2023-05-12T01:23:18.958Z,4.07
2023-05-12T01:25:49.086Z,3.90
2023-05-12T01:28:17.137Z,3.80
2023-05-12T01:30:44.409Z,3.88
2023-05-12T01:33:11.068Z,3.55
2023-05-12T01:35:40.359Z,3.70
2023-05-12T01:38:06.908Z,3.95
2023-05-12T01:40:33.896Z,3.92
2023-05-12T01:43:00.529Z,3.83
2023-05-12T01:45:27.105Z,4.05
2023-05-12T01:47:53.732Z,3.78
2023-05-12T01:50:21.038Z,3.50
2023-05-12T01:52:47.834Z,3.80
2023-05-12T01:55:14.389Z,4.10
2023-05-12T01:57:40.990Z,4.10
2023-05-12T02:00:08.911Z,3.85
2023-05-12T02:02:35.581Z,4.10
2023-05-12T02:05:02.200Z,4.05
2023-05-12T02:07:28.917Z,3.78
2023-05-12T02:09:55.613Z,4.00
2023-05-12T02:12:22.142Z,4.00
2023-05-12T02:14:48.845Z,3.85
2023-05-12T02:17:17.019Z,4.03
2023-05-12T02:19:43.660Z,3.80
2023-05-12T02:22:10.209Z,4.15
2023-05-12T02:24:36.749Z,4.38
2023-05-12T02:27:03.469Z,4.28
2023-05-12T02:29:29.984Z,3.92
2023-05-12T02:31:56.727Z,4.10
2023-05-12T02:34:23.300Z,4.10
2023-05-12T02:36:49.883Z,4.07
2023-05-12T02:39:16.608Z,4.10
2023-05-12T02:41:43.338Z,4.00
2023-05-12T02:44:09.908Z,4.13
2023-05-12T02:46:37.285Z,4.50
2023-05-12T02:49:04.382Z,4.15
2023-05-12T02:51:31.940Z,4.13
2023-05-12T02:53:58.544Z,4.35
2023-05-12T02:56:25.919Z,4.40
2023-05-12T02:58:53.365Z,4.32
2023-05-12T03:01:19.975Z,4.32
2023-05-12T03:03:46.832Z,4.60
2023-05-12T03:06:13.646Z,4.18
2023-05-12T03:08:40.253Z,4.05
2023-05-12T03:11:06.907Z,4.30
2023-05-12T03:13:33.521Z,4.18
2023-05-12T03:16:02.910Z,4.38
2023-05-12T03:18:29.682Z,4.60
2023-05-12T03:20:56.357Z,4.68
2023-05-12T03:23:23.047Z,4.35
2023-05-12T03:25:50.363Z,4.22
2023-05-12T03:28:17.000Z,4.40
2023-05-12T03:30:43.588Z,4.90
2023-05-12T03:33:10.739Z,4.28
2023-05-12T03:35:37.265Z,4.70
2023-05-12T03:38:03.809Z,4.38
2023-05-12T03:40:30.744Z,4.43
2023-05-12T03:42:57.358Z,5.30
2023-05-12T03:45:23.946Z,4.55
2023-05-12T03:47:50.863Z,4.68
2023-05-12T03:50:17.811Z,4.70
2023-05-12T03:52:44.650Z,4.68
2023-05-12T03:55:11.263Z,4.53
2023-05-12T03:57:38.165Z,4.47
2023-05-12T04:00:05.883Z,4.47
2023-05-12T04:02:32.587Z,4.93
2023-05-12T04:04:59.531Z,4.70
2023-05-12T04:07:26.332Z,4.50
2023-05-12T04:09:53.067Z,5.03
2023-05-12T04:12:19.678Z,4.65
2023-05-12T04:14:46.520Z,4.72
2023-05-12T04:17:13.193Z,4.50
2023-05-12T04:19:39.822Z,4.72
2023-05-12T04:22:06.393Z,4.45
2023-05-12T04:24:33.078Z,4.70
2023-05-12T04:26:59.626Z,4.85
2023-05-12T04:29:26.248Z,5.30
2023-05-12T04:31:55.483Z,4.97
2023-05-12T04:34:22.096Z,4.82
2023-05-12T04:36:48.608Z,5.05
2023-05-12T04:39:15.317Z,4.97
2023-05-12T04:41:41.842Z,5.75
2023-05-12T04:44:08.344Z,5.22
2023-05-12T04:46:35.014Z,4.90
2023-05-12T04:49:01.839Z,5.30
2023-05-12T04:51:28.409Z,4.63
2023-05-12T04:53:55.102Z,6.13
2023-05-12T04:56:22.361Z,4.53
2023-05-12T04:58:49.095Z,4.57
2023-05-12T05:01:15.988Z,4.53
2023-05-12T05:03:42.792Z,4.32
2023-05-12T05:06:09.422Z,4.60
2023-05-12T05:08:35.961Z,4.90
2023-05-12T05:11:02.541Z,4.25
2023-05-12T05:13:29.125Z,4.85
2023-05-12T05:15:55.741Z,4.28
2023-05-12T05:18:24.207Z,4.00
2023-05-12T05:20:57.666Z,4.45
2023-05-12T05:23:25.834Z,4.30
2023-05-12T05:25:52.625Z,4.43
2023-05-12T05:28:19.140Z,4.50
2023-05-12T05:30:45.782Z,4.18
2023-05-12T05:33:13.140Z,4.38
2023-05-12T05:35:40.214Z,4.30
2023-05-12T05:38:06.750Z,4.00
2023-05-12T05:40:44.965Z,3.50
2023-05-12T05:43:18.607Z,4.00
2023-05-12T05:45:45.363Z,4.00
2023-05-12T05:48:12.194Z,3.72
2023-05-12T05:50:39.030Z,3.80
2023-05-12T05:53:06.652Z,3.85
2023-05-12T05:55:33.240Z,3.92
2023-05-12T05:57:59.893Z,4.10
2023-05-12T06:00:26.748Z,4.28
2023-05-12T06:02:53.341Z,4.40
2023-05-12T06:05:20.363Z,4.53
2023-05-12T06:07:47.103Z,4.35
2023-05-12T06:10:13.711Z,4.70
2023-05-12T06:12:43.698Z,4.22
2023-05-12T06:15:11.215Z,4.70
2023-05-12T06:17:38.234Z,4.40
2023-05-12T06:20:06.469Z,4.95
2023-05-12T06:22:34.658Z,4.40
2023-05-12T06:25:01.639Z,4.28
2023-05-12T06:27:28.279Z,4.65
2023-05-12T06:29:55.124Z,5.00
2023-05-12T06:32:21.922Z,5.18
2023-05-12T06:34:48.614Z,5.15
2023-05-12T06:37:15.253Z,4.93
2023-05-12T06:39:41.866Z,4.53
2023-05-12T06:42:08.513Z,5.07
2023-05-12T06:44:35.184Z,5.05
2023-05-12T06:47:01.701Z,5.22
2023-05-12T06:49:28.301Z,4.93
2023-05-12T06:51:54.891Z,5.88
2023-05-12T06:54:21.494Z,5.20
2023-05-12T06:56:48.020Z,5.45
2023-05-12T06:59:14.560Z,5.15
2023-05-12T07:01:42.939Z,5.50
2023-05-12T07:04:09.619Z,5.50
2023-05-12T07:06:36.202Z,5.22
2023-05-12T07:09:02.857Z,5.55
2023-05-12T07:11:29.459Z,5.55
2023-05-12T07:13:56.396Z,5.20
2023-05-12T07:16:23.034Z,5.20
2023-05-12T07:18:49.749Z,5.18
2023-05-12T07:21:16.451Z,4.70
2023-05-12T07:23:43.127Z,5.00
2023-05-12T07:26:10.510Z,4.97
2023-05-12T07:28:38.009Z,5.47
2023-05-12T07:31:07.154Z,5.28
2023-05-12T07:33:35.251Z,5.78
2023-05-12T07:36:04.563Z,5.15
2023-05-12T07:38:31.977Z,5.78
2023-05-12T07:40:59.596Z,5.07
2023-05-12T07:43:26.459Z,5.50
2023-05-12T07:45:54.578Z,5.78
2023-05-12T07:48:21.676Z,4.90
2023-05-12T07:50:48.433Z,4.97
2023-05-12T07:53:15.142Z,6.88
2023-05-12T07:55:43.144Z,5.68
2023-05-12T07:58:09.845Z,4.85
2023-05-12T08:00:37.265Z,5.45
2023-05-12T08:03:04.778Z,4.90
2023-05-12T08:05:31.380Z,4.90
2023-05-12T08:07:58.040Z,5.55
2023-05-12T08:10:29.538Z,4.75
2023-05-12T08:12:56.572Z,5.30
2023-05-12T08:15:23.538Z,5.30
2023-05-12T08:17:50.158Z,4.75
2023-05-12T08:20:16.738Z,6.30
2023-05-12T08:22:44.077Z,5.05
2023-05-12T08:25:17.720Z,4.90
2023-05-12T08:27:44.415Z,4.95
2023-05-12T08:30:11.689Z,5.00
2023-05-12T08:32:39.469Z,5.07
2023-05-12T08:35:06.507Z,4.50
2023-05-12T08:37:34.705Z,4.55
2023-05-12T08:40:01.853Z,4.90
2023-05-12T08:42:37.285Z,4.47
2023-05-12T08:45:04.384Z,4.43
2023-05-12T08:47:33.492Z,4.70
2023-05-12T08:50:03.322Z,4.75
2023-05-12T08:52:33.047Z,4.60
2023-05-12T08:55:01.080Z,4.47
2023-05-12T08:57:29.841Z,4.05
2023-05-12T08:59:59.481Z,4.07
2023-05-12T09:02:37.613Z,4.35
2023-05-12T09:05:09.211Z,4.65
2023-05-12T09:07:39.669Z,4.32
2023-05-12T09:10:08.704Z,4.15
2023-05-12T09:12:37.867Z,4.25
2023-05-12T09:15:09.695Z,4.00
2023-05-12T09:17:36.627Z,4.07
2023-05-12T09:20:04.151Z,4.28
2023-05-12T09:22:33.566Z,4.15
2023-05-12T09:25:00.298Z,4.15
2023-05-12T09:27:30.285Z,4.03
2023-05-12T09:29:59.689Z,4.57
2023-05-12T09:32:32.480Z,4.05
2023-05-12T09:35:06.585Z,5.07
2023-05-12T09:37:34.611Z,4.10
2023-05-12T09:40:02.932Z,3.83
2023-05-12T09:42:31.148Z,3.88
2023-05-12T09:45:00.868Z,3.90
2023-05-12T09:47:29.262Z,4.60
2023-05-12T09:49:57.633Z,4.07
2023-05-12T09:52:24.293Z,4.05
2023-05-12T09:54:52.658Z,3.60
2023-05-12T09:57:21.874Z,4.13
2023-05-12T09:59:49.746Z,4.28
2023-05-12T10:02:16.875Z,4.30
2023-05-12T10:05:00.965Z,3.80
2023-05-12T10:07:28.102Z,3.90
2023-05-12T10:09:58.541Z,4.00
2023-05-12T10:12:25.173Z,4.07
2023-05-12T10:14:52.098Z,3.45
2023-05-12T10:17:20.093Z,3.70
2023-05-12T10:19:48.298Z,3.72
2023-05-12T10:22:17.193Z,4.22
2023-05-12T10:24:45.646Z,3.97
2023-05-12T10:27:13.616Z,3.83
2023-05-12T10:29:41.080Z,4.10
2023-05-12T10:32:07.707Z,3.70
2023-05-12T10:34:35.951Z,4.35
2023-05-12T10:37:08.269Z,3.35
2023-05-12T10:39:35.122Z,4.13
2023-05-12T10:42:09.495Z,4.03
2023-05-12T10:44:47.552Z,4.10
2023-05-12T10:47:17.257Z,3.63
2023-05-12T10:49:44.030Z,4.03
2023-05-12T10:52:13.031Z,4.03
2023-05-12T10:54:44.745Z,4.10
2023-05-12T10:57:21.195Z,4.78
2023-05-12T11:00:02.524Z,4.22
2023-05-12T11:02:34.937Z,3.95
2023-05-12T11:05:10.334Z,3.80
2023-05-12T11:07:37.806Z,4.03
2023-05-12T11:10:06.042Z,4.10
2023-05-12T11:12:37.871Z,3.92
2023-05-12T11:15:06.427Z,4.32
2023-05-12T11:17:33.543Z,4.38
2023-05-12T11:20:01.338Z,4.57
2023-05-12T11:22:28.343Z,3.72
2023-05-12T11:24:55.122Z,4.10
2023-05-12T11:27:23.478Z,3.53
2023-05-12T11:30:01.697Z,3.50
2023-05-12T11:32:30.408Z,4.50
2023-05-12T11:35:09.730Z,3.72
2023-05-12T11:37:38.542Z,3.55
2023-05-12T11:40:25.528Z,4.15
2023-05-12T11:42:53.896Z,3.60
2023-05-12T11:45:29.245Z,3.95
2023-05-12T11:48:12.121Z,3.30
2023-05-12T11:50:40.962Z,3.60
2023-05-12T11:53:13.564Z,4.40
2023-05-12T11:55:55.722Z,3.88
2023-05-12T11:58:29.816Z,3.78
2023-05-12T12:00:57.631Z,4.18
2023-05-12T12:03:24.818Z,4.47
2023-05-12T12:06:02.725Z,3.65
2023-05-12T12:08:29.789Z,4.10
2023-05-12T12:10:56.521Z,3.83
2023-05-12T12:13:24.721Z,4.00
2023-05-12T12:15:52.328Z,4.10
2023-05-12T12:18:19.196Z,3.75
2023-05-12T12:20:47.138Z,4.35
2023-05-12T12:23:13.741Z,3.85
2023-05-12T12:25:40.429Z,4.32
2023-05-12T12:28:07.162Z,4.20
2023-05-12T12:30:34.108Z,3.85
2023-05-12T12:33:00.816Z,3.95
2023-05-12T12:35:27.411Z,3.70
2023-05-12T12:37:54.041Z,4.00
2023-05-12T12:40:20.706Z,3.67
2023-05-12T12:42:47.413Z,3.80
2023-05-12T12:45:14.136Z,3.85
2023-05-12T12:47:40.785Z,3.50
2023-05-12T12:50:09.577Z,3.78
2023-05-12T12:52:38.242Z,3.80
2023-05-12T12:55:06.624Z,4.20
2023-05-12T12:57:33.242Z,3.53
2023-05-12T12:59:59.860Z,3.75
2023-05-12T13:02:27.078Z,4.40
2023-05-12T13:04:53.877Z,4.35
2023-05-12T13:07:20.796Z,3.70
2023-05-12T13:09:47.665Z,3.38
2023-05-12T13:12:14.676Z,3.50
2023-05-12T13:14:41.262Z,3.40
2023-05-12T13:17:08.204Z,3.50
2023-05-12T13:19:37.796Z,3.83
2023-05-12T13:22:05.254Z,3.50
2023-05-12T13:24:31.872Z,3.38
2023-05-12T13:26:58.517Z,3.78
2023-05-12T13:29:25.131Z,3.80
2023-05-12T13:31:51.763Z,3.72
2023-05-12T13:34:18.381Z,3.20
2023-05-12T13:36:45.106Z,3.13
2023-05-12T13:39:12.620Z,3.42
2023-05-12T13:41:39.138Z,3.70
2023-05-12T13:44:06.110Z,3.53
2023-05-12T13:46:32.806Z,3.65
2023-05-12T13:48:59.442Z,3.42
2023-05-12T13:51:26.434Z,3.38
2023-05-12T13:53:53.251Z,3.42
2023-05-12T13:56:20.793Z,3.10
2023-05-12T13:58:47.687Z,3.20
2023-05-12T14:01:14.813Z,3.45
2023-05-12T14:03:42.106Z,3.10
2023-05-12T14:06:09.285Z,3.35
2023-05-12T14:08:36.269Z,2.92
2023-05-12T14:11:03.049Z,3.28
2023-05-12T14:13:29.694Z,2.75
2023-05-12T14:15:56.682Z,3.10
2023-05-12T14:18:24.618Z,2.97
2023-05-12T14:20:51.492Z,3.00
2023-05-12T14:23:18.039Z,2.90
2023-05-12T14:25:45.550Z,2.92
2023-05-12T14:28:12.284Z,2.95
2023-05-12T14:30:39.104Z,3.30
2023-05-12T14:33:06.473Z,3.55
2023-05-12T14:35:33.095Z,3.03
2023-05-12T14:37:59.721Z,2.95
2023-05-12T14:40:27.177Z,3.60
2023-05-12T14:42:54.540Z,3.10
2023-05-12T14:45:21.580Z,3.00
2023-05-12T14:47:48.493Z,3.28
2023-05-12T14:50:15.204Z,3.35
2023-05-12T14:52:42.237Z,6.45
2023-05-12T14:55:11.794Z,3.20
2023-05-12T14:57:42.566Z,3.00
2023-05-12T15:00:13.756Z,3.05
2023-05-12T15:02:42.098Z,2.97
2023-05-12T15:05:10.087Z,3.80
2023-05-12T15:07:37.158Z,3.00
2023-05-12T15:10:04.736Z,2.78
2023-05-12T15:12:31.812Z,3.10
2023-05-12T15:15:01.154Z,2.70
2023-05-12T15:17:30.766Z,3.05
2023-05-12T15:19:57.621Z,3.75
2023-05-12T15:22:24.118Z,3.00
2023-05-12T15:24:50.695Z,3.05
2023-05-12T15:27:17.300Z,2.78
2023-05-12T15:29:43.951Z,2.70
2023-05-12T15:32:10.894Z,2.70
2023-05-12T15:34:37.627Z,2.50
2023-05-12T15:37:04.519Z,2.67
2023-05-12T15:39:31.572Z,2.70
2023-05-12T15:41:58.938Z,2.88
2023-05-12T15:44:25.572Z,2.70
2023-05-12T15:46:52.370Z,2.90
2023-05-12T15:49:18.992Z,2.90
2023-05-12T15:51:45.592Z,2.63
2023-05-12T15:54:12.506Z,2.50
2023-05-12T15:56:39.115Z,2.60
2023-05-12T15:59:06.026Z,2.47
2023-05-12T16:01:32.755Z,2.40
2023-05-12T16:04:00.057Z,2.90
2023-05-12T16:06:27.103Z,2.50
2023-05-12T16:08:53.713Z,2.50
2023-05-12T16:11:20.309Z,3.33
2023-05-12T16:13:47.011Z,2.67
2023-05-12T16:16:14.088Z,2.80
2023-05-12T16:18:40.833Z,2.45
2023-05-12T16:21:08.268Z,2.47
2023-05-12T16:23:35.058Z,2.50
2023-05-12T16:26:01.681Z,2.58
2023-05-12T16:28:28.289Z,2.65
2023-05-12T16:30:54.836Z,3.05
2023-05-12T16:33:21.410Z,3.10
2023-05-12T16:35:48.028Z,3.30
2023-05-12T16:38:14.781Z,2.78
2023-05-12T16:40:41.458Z,2.75
2023-05-12T16:43:08.112Z,3.20
2023-05-12T16:45:34.849Z,2.70
2023-05-12T16:48:01.980Z,2.67
2023-05-12T16:50:28.637Z,2.53
2023-05-12T16:52:55.294Z,2.70
2023-05-12T16:55:22.243Z,2.55
2023-05-12T16:57:49.101Z,3.00
2023-05-12T17:00:16.131Z,2.90
2023-05-12T17:02:42.850Z,2.50
2023-05-12T17:05:09.718Z,2.10
2023-05-12T17:07:36.940Z,2.70
2023-05-12T17:10:04.069Z,2.85
2023-05-12T17:12:30.809Z,2.75
2023-05-12T17:15:06.855Z,2.90
2023-05-12T17:17:34.837Z,2.65
2023-05-12T17:20:01.629Z,3.03
2023-05-12T17:22:28.425Z,2.42
2023-05-12T17:24:54.968Z,2.50
2023-05-12T17:27:21.690Z,3.42
2023-05-12T17:29:48.294Z,2.72
2023-05-12T17:32:14.906Z,2.80
2023-05-12T17:34:41.885Z,2.75
2023-05-12T17:37:08.438Z,2.42
2023-05-12T17:39:35.027Z,2.83
2023-05-12T17:42:01.585Z,2.92
2023-05-12T17:44:29.935Z,3.75
2023-05-12T17:46:56.728Z,3.08
2023-05-12T17:49:23.653Z,4.50
2023-05-12T17:51:54.657Z,4.25
2023-05-12T17:54:21.278Z,4.25
2023-05-12T17:56:47.988Z,3.92
2023-05-12T17:59:14.922Z,3.35
2023-05-12T18:01:41.765Z,3.40
2023-05-12T18:04:08.397Z,3.53
2023-05-12T18:06:35.498Z,3.35
2023-05-12T18:09:02.630Z,3.03
2023-05-12T18:11:29.234Z,4.05
2023-05-12T18:13:56.086Z,3.25
2023-05-12T18:16:29.007Z,3.00
2023-05-12T18:18:56.307Z,2.80
2023-05-12T18:21:24.285Z,4.20
2023-05-12T18:23:50.936Z,4.70
2023-05-12T18:26:17.488Z,4.93
2023-05-12T18:28:44.134Z,4.25
2023-05-12T18:33:40.772Z,4.60
2023-05-12T18:36:07.527Z,3.80
2023-05-12T18:38:34.519Z,3.70
2023-05-12T18:41:01.111Z,3.85
2023-05-12T18:43:27.746Z,3.70
2023-05-12T18:45:54.323Z,3.45
2023-05-12T18:48:20.908Z,3.63
2023-05-12T18:50:47.573Z,3.05
2023-05-12T18:53:15.145Z,2.90
2023-05-12T18:55:41.732Z,2.72
2023-05-12T18:58:08.471Z,2.80
2023-05-12T19:00:35.598Z,2.90
2023-05-12T19:03:05.090Z,2.85
2023-05-12T19:05:31.974Z,3.30
2023-05-12T19:07:58.536Z,2.80
2023-05-12T19:10:25.203Z,2.78
2023-05-12T19:12:51.795Z,2.75
2023-05-12T19:15:18.585Z,2.90
2023-05-12T19:17:45.384Z,2.90
2023-05-12T19:20:12.208Z,2.90
2023-05-12T19:22:38.844Z,2.80
2023-05-12T19:25:06.192Z,2.60
2023-05-12T19:27:32.816Z,2.95
2023-05-12T19:30:02.128Z,2.95
2023-05-12T19:32:29.090Z,2.65
2023-05-12T19:34:55.967Z,2.65
2023-05-12T19:37:22.768Z,2.88
2023-05-12T19:39:50.072Z,2.33
2023-05-12T19:42:16.575Z,2.55
2023-05-12T19:44:43.187Z,2.60
2023-05-12T19:47:09.825Z,2.88
2023-05-12T19:49:36.945Z,2.60
2023-05-12T19:52:05.789Z,2.85
2023-05-12T19:54:32.492Z,2.67
2023-05-12T19:56:59.046Z,2.80
2023-05-12T20:03:06.818Z,2.90
2023-05-12T20:05:37.436Z,3.35
2023-05-12T20:08:04.347Z,2.80
2023-05-12T20:10:31.045Z,2.70
2023-05-12T20:12:57.603Z,2.80
2023-05-12T20:15:24.363Z,2.55
2023-05-12T20:17:50.905Z,2.72
2023-05-12T20:20:17.536Z,2.75
2023-05-12T20:22:44.425Z,3.03
2023-05-12T20:25:14.294Z,2.90
2023-05-12T20:27:42.294Z,2.60
2023-05-12T20:30:10.407Z,2.65
2023-05-12T20:32:37.117Z,2.70
2023-05-12T20:35:04.691Z,2.80
2023-05-12T20:37:31.583Z,3.00
2023-05-12T20:39:58.200Z,3.08
2023-05-12T20:42:24.987Z,3.28
2023-05-12T20:44:51.529Z,2.97
2023-05-12T20:47:18.665Z,3.00
2023-05-12T20:49:45.309Z,2.88
2023-05-12T20:52:11.955Z,3.08
2023-05-12T20:54:38.598Z,2.90
2023-05-12T20:57:05.494Z,2.92
2023-05-12T20:59:32.085Z,3.03
2023-05-12T21:01:58.764Z,3.25
2023-05-12T21:04:25.913Z,3.50
2023-05-12T21:06:53.628Z,3.10
2023-05-12T21:09:20.539Z,4.07
2023-05-12T21:11:47.272Z,3.38
2023-05-12T21:14:13.865Z,3.70
2023-05-12T21:16:40.674Z,3.88
2023-05-12T21:19:07.436Z,4.15
2023-05-12T21:21:34.284Z,3.58
2023-05-12T21:24:00.873Z,3.55
2023-05-12T21:26:27.482Z,3.72
2023-05-12T21:28:54.159Z,4.13
2023-05-12T21:31:20.825Z,3.63
2023-05-12T21:33:48.090Z,3.58
2023-05-12T21:36:14.785Z,3.78
2023-05-12T21:38:41.520Z,3.40
2023-05-12T21:41:08.127Z,3.70
2023-05-12T21:43:34.836Z,3.65
2023-05-12T21:46:03.411Z,3.55
2023-05-12T21:48:30.918Z,3.80
2023-05-12T21:51:02.199Z,3.70
2023-05-12T21:53:29.017Z,3.53
2023-05-12T21:55:55.756Z,3.88
2023-05-12T21:58:23.716Z,3.20
2023-05-12T22:00:51.321Z,3.30
2023-05-12T22:03:20.232Z,3.97
2023-05-12T22:05:46.998Z,3.60
2023-05-12T22:08:13.975Z,3.33
2023-05-12T22:10:40.716Z,3.60
2023-05-12T22:13:07.396Z,3.40
2023-05-12T22:15:34.636Z,3.55
2023-05-12T22:18:01.634Z,3.40
2023-05-12T22:20:28.270Z,3.50
2023-05-12T22:22:54.934Z,3.13
2023-05-12T22:25:21.602Z,3.20
2023-05-12T22:27:48.376Z,3.35
2023-05-12T22:30:14.895Z,3.47
2023-05-12T22:32:41.582Z,3.35
2023-05-12T22:35:08.634Z,3.10
2023-05-12T22:37:35.374Z,3.17
2023-05-12T22:40:02.386Z,3.67
2023-05-12T22:42:28.980Z,3.33
2023-05-12T22:44:57.302Z,3.42
2023-05-12T22:47:24.030Z,3.53
2023-05-12T22:49:50.700Z,3.50
2023-05-12T22:52:17.321Z,3.45
2023-05-12T22:54:43.872Z,3.53
2023-05-12T22:57:10.426Z,3.35
2023-05-12T22:59:37.074Z,3.78
2023-05-12T23:02:03.771Z,3.40
2023-05-12T23:04:30.772Z,3.50
2023-05-12T23:06:57.370Z,3.45
2023-05-12T23:09:23.941Z,3.60
2023-05-12T23:11:50.570Z,3.33
2023-05-12T23:14:17.177Z,3.50
2023-05-12T23:16:43.722Z,3.70
2023-05-12T23:19:10.410Z,3.40
2023-05-12T23:21:37.038Z,3.70
2023-05-12T23:24:04.008Z,3.60
2023-05-12T23:26:30.574Z,4.10
2023-05-12T23:28:57.157Z,3.30
2023-05-12T23:31:23.820Z,3.15
2023-05-12T23:33:50.490Z,3.30
2023-05-12T23:36:17.040Z,3.60
2023-05-12T23:38:43.766Z,3.55
2023-05-12T23:41:10.597Z,3.45
2023-05-12T23:43:37.136Z,3.53
2023-05-12T23:46:03.769Z,3.60
2023-05-12T23:48:30.468Z,3.70
2023-05-12T23:50:57.112Z,3.60
2023-05-12T23:53:23.665Z,3.45
2023-05-12T23:55:50.252Z,3.92
2023-05-12T23:58:16.917Z,3.67
